This is the latest recevied weather packets stored in our database for station/object KA8OAD-10. If no packets are shown the sender has not sent any weather packets the latest 10 day(s).
| Time | Temp. | Humidity | Pressure | Rain* | Wind** | Luminosity | Snow |
|---|---|---|---|---|---|---|---|
| 1777574251 | 8.89° C | 77% | 1013 hPa | 0.25 mm | - | 503 W/m² | - |
| 1777573050 | 10° C | 74% | 1012.9 hPa | 0 mm | - | 95 W/m² | - |
| 1777572752 | 9.44° C | 75% | 1012.9 hPa | 0 mm | - | 483 W/m² | - |
| 1777572452 | 9.44° C | 76% | 1012.9 hPa | 0 mm | - | 367 W/m² | - |
| 1777572152 | 9.44° C | 76% | 1012.9 hPa | 0 mm | - | 302 W/m² | - |
| 1777571851 | 8.89° C | 75% | 1013 hPa | 0 mm | - | 295 W/m² | - |
| 1777571550 | 8.89° C | 75% | 1012.9 hPa | 0 mm | - | 311 W/m² | - |
| 1777571250 | 8.89° C | 73% | 1012.9 hPa | 0 mm | - | 285 W/m² | - |
| 1777570653 | 8.89° C | 72% | 1012.9 hPa | 0 mm | - | 120 W/m² | - |
| 1777570353 | 9.44° C | 72% | 1012.8 hPa | 0 mm | - | 97 W/m² | - |
| 1777569751 | 9.44° C | 72% | 1012.9 hPa | 0 mm | - | 60 W/m² | - |
| 1777569451 | 9.44° C | 72% | 1012.9 hPa | 0 mm | - | 72 W/m² | - |
| 1777569150 | 9.44° C | 72% | 1012.8 hPa | 0 mm | - | 98 W/m² | - |
| 1777568850 | 9.44° C | 72% | 1012.8 hPa | 0 mm | - | 162 W/m² | - |
| 1777568552 | 9.44° C | 73% | 1012.8 hPa | 0 mm | - | 202 W/m² | - |
| 1777568252 | 9.44° C | 74% | 1012.8 hPa | 0 mm | - | 167 W/m² | - |
| 1777567351 | 8.89° C | 75% | 1012.9 hPa | 0 mm | - | 243 W/m² | - |
| 1777567051 | 8.89° C | 75% | 1012.8 hPa | 0 mm | - | 160 W/m² | - |
| 1777566750 | 8.89° C | 77% | 1012.8 hPa | 0 mm | - | 97 W/m² | - |
| 1777566450 | 8.89° C | 78% | 1012.7 hPa | 0 mm | - | 193 W/m² | - |
| 1777565251 | 8.33° C | 79% | 1012.9 hPa | 0 mm | - | 102 W/m² | - |
| 1777564650 | 8.33° C | 79% | 1012.7 hPa | 0 mm | - | 109 W/m² | - |
| 1777564349 | 8.33° C | 79% | 1012.8 hPa | 0 mm | - | 181 W/m² | - |
| 1777564050 | 8.33° C | 79% | 1012.7 hPa | 0 mm | - | 114 W/m² | - |
| 1777563753 | 7.78° C | 80% | 1012.7 hPa | 0 mm | - | 134 W/m² | - |
* Rain latest hour (hover to see other rain measurements)
** Current wind speed in m/s (hover to see current wind gust speed)